createdAt,value
2023-01-02T00:00:26.370Z,1.60
2023-01-02T00:02:53.000Z,2.05
2023-01-02T00:05:19.657Z,2.83
2023-01-02T00:07:46.162Z,2.40
2023-01-02T00:10:12.581Z,2.15
2023-01-02T00:12:39.070Z,1.98
2023-01-02T00:15:05.998Z,2.20
2023-01-02T00:17:32.604Z,2.22
2023-01-02T00:19:59.012Z,2.95
2023-01-02T00:22:25.485Z,2.30
2023-01-02T00:24:51.923Z,2.47
2023-01-02T00:27:18.357Z,2.67
2023-01-02T00:29:44.792Z,3.15
2023-01-02T00:32:11.202Z,4.22
2023-01-02T00:34:37.583Z,2.65
2023-01-02T00:37:03.999Z,3.28
2023-01-02T00:39:30.473Z,3.60
2023-01-02T00:41:56.901Z,2.13
2023-01-02T00:44:23.346Z,2.60
2023-01-02T00:46:49.818Z,2.28
2023-01-02T00:49:16.285Z,2.60
2023-01-02T00:51:42.674Z,3.45
2023-01-02T00:54:09.104Z,2.85
2023-01-02T00:56:35.601Z,3.03
2023-01-02T00:59:02.056Z,2.13
2023-01-02T01:01:28.897Z,2.38
2023-01-02T01:03:55.442Z,3.10
2023-01-02T01:06:21.863Z,3.97
2023-01-02T01:08:48.273Z,3.22
2023-01-02T01:11:16.741Z,3.15
2023-01-02T01:13:44.122Z,2.80
2023-01-02T01:16:13.981Z,2.53
2023-01-02T01:18:41.232Z,2.17
2023-01-02T01:21:12.956Z,2.03
2023-01-02T01:23:40.066Z,2.33
2023-01-02T01:26:09.685Z,1.60
2023-01-02T01:28:36.248Z,3.22
2023-01-02T01:31:08.229Z,1.92
2023-01-02T01:33:35.346Z,2.95
2023-01-02T01:36:08.568Z,2.70
2023-01-02T01:38:35.229Z,2.42
2023-01-02T01:41:02.520Z,1.77
2023-01-02T01:43:36.333Z,2.75
2023-01-02T01:46:03.580Z,1.95
2023-01-02T01:48:30.447Z,1.85
2023-01-02T01:50:57.288Z,1.90
2023-01-02T01:53:24.539Z,1.67
2023-01-02T01:55:58.947Z,3.10
2023-01-02T01:58:46.237Z,2.15
2023-01-02T02:01:15.541Z,2.88
2023-01-02T02:03:45.766Z,2.22
2023-01-02T02:06:12.891Z,2.40
2023-01-02T02:08:53.423Z,1.55
2023-01-02T02:11:20.146Z,2.50
2023-01-02T02:13:48.457Z,2.22
2023-01-02T02:16:25.870Z,2.47
2023-01-02T02:19:17.149Z,2.47
2023-01-02T02:21:55.746Z,2.72
2023-01-02T02:25:03.128Z,2.20
2023-01-02T02:27:43.643Z,1.58
2023-01-02T02:30:34.552Z,1.42
2023-01-02T02:33:22.209Z,2.55
2023-01-02T02:36:01.596Z,2.13
2023-01-02T02:38:59.031Z,1.70
2023-01-02T02:41:34.643Z,2.63
2023-01-02T02:44:20.244Z,2.00
2023-01-02T02:47:13.493Z,2.42
2023-01-02T02:49:52.673Z,3.97
2023-01-02T02:52:31.456Z,2.03
2023-01-02T02:55:16.997Z,1.63
2023-01-02T02:57:45.242Z,1.88
2023-01-02T03:00:18.778Z,3.13
2023-01-02T03:02:46.006Z,1.67
2023-01-02T03:05:21.568Z,1.50
2023-01-02T03:07:58.431Z,2.08
2023-01-02T03:13:41.741Z,1.33
2023-01-02T03:16:30.638Z,1.40
2023-01-02T03:19:11.045Z,1.45
2023-01-02T03:21:46.409Z,1.90
2023-01-02T03:24:16.624Z,1.08
2023-01-02T03:26:47.918Z,1.10
2023-01-02T03:29:21.867Z,1.30
2023-01-02T03:31:54.138Z,1.92
2023-01-02T03:34:24.678Z,2.28
2023-01-02T03:36:55.473Z,2.55
2023-01-02T03:39:28.514Z,1.73
2023-01-02T03:41:59.109Z,1.17
2023-01-02T03:44:30.419Z,1.20
2023-01-02T03:47:13.899Z,1.23
2023-01-02T03:49:44.929Z,0.50
2023-01-02T03:52:11.404Z,1.42
2023-01-02T03:54:38.378Z,2.28
2023-01-02T03:57:21.389Z,1.45
2023-01-02T04:00:12.166Z,1.27
2023-01-02T04:03:03.270Z,1.17
2023-01-02T04:05:38.373Z,1.38
2023-01-02T04:08:10.013Z,2.20
2023-01-02T04:10:38.405Z,1.40
2023-01-02T04:13:11.686Z,1.70
2023-01-02T04:15:40.021Z,1.00
2023-01-02T04:18:13.153Z,1.55
2023-01-02T04:20:44.273Z,0.95
2023-01-02T04:23:15.657Z,1.10
2023-01-02T04:25:50.012Z,1.70
2023-01-02T04:28:23.536Z,1.00
2023-01-02T04:30:55.817Z,1.95
2023-01-02T04:33:23.916Z,1.52
2023-01-02T04:35:50.385Z,0.82
2023-01-02T04:38:16.846Z,2.33
2023-01-02T04:40:43.500Z,1.95
2023-01-02T04:43:21.561Z,1.55
2023-01-02T04:45:48.757Z,1.13
2023-01-02T04:48:16.348Z,2.25
2023-01-02T04:50:43.368Z,2.15
2023-01-02T04:53:10.815Z,1.80
2023-01-02T04:55:38.368Z,1.48
2023-01-02T04:58:05.617Z,3.38
2023-01-02T05:00:32.175Z,2.17
2023-01-02T05:02:58.576Z,1.52
2023-01-02T05:05:24.968Z,1.40
2023-01-02T05:07:51.415Z,1.15
2023-01-02T05:10:17.912Z,1.17
2023-01-02T05:12:44.385Z,0.98
2023-01-02T05:15:11.973Z,0.93
2023-01-02T05:17:40.395Z,1.92
2023-01-02T05:20:10.521Z,0.90
2023-01-02T05:23:00.027Z,1.67
2023-01-02T05:25:31.149Z,1.63
2023-01-02T05:27:57.981Z,1.65
2023-01-02T05:30:25.163Z,1.67
2023-01-02T05:32:52.915Z,1.67
2023-01-02T05:35:19.597Z,2.78
2023-01-02T05:37:46.144Z,1.17
2023-01-02T05:40:12.833Z,1.48
2023-01-02T05:42:39.256Z,3.20
2023-01-02T05:45:06.412Z,2.00
2023-01-02T05:47:33.662Z,1.25
2023-01-02T05:50:00.073Z,0.75
2023-01-02T05:52:26.534Z,2.70
2023-01-02T05:54:52.980Z,1.88
2023-01-02T05:57:19.437Z,2.17
2023-01-02T05:59:45.882Z,1.40
2023-01-02T06:02:12.361Z,1.23
2023-01-02T06:04:38.923Z,2.50
2023-01-02T06:07:05.325Z,0.50
2023-01-02T06:09:31.763Z,0.60
2023-01-02T06:11:58.170Z,0.55
2023-01-02T06:14:25.049Z,0.10
2023-01-02T06:16:51.431Z,0.50
2023-01-02T06:19:17.816Z,0.52
2023-01-02T06:21:44.264Z,0.82
2023-01-02T06:24:10.839Z,0.10
2023-01-02T06:26:37.252Z,0.30
2023-01-02T06:29:04.298Z,0.55
2023-01-02T06:31:33.198Z,0.30
2023-01-02T06:34:01.857Z,0.10
2023-01-02T06:36:33.470Z,0.45
2023-01-02T06:38:59.926Z,0.65
2023-01-02T06:41:26.417Z,0.70
2023-01-02T06:43:53.968Z,0.65
2023-01-02T06:46:21.854Z,0.50
2023-01-02T06:48:49.723Z,0.45
2023-01-02T06:51:19.623Z,0.65
2023-01-02T06:53:46.024Z,0.93
2023-01-02T06:56:15.285Z,0.65
2023-01-02T06:58:41.709Z,0.60
2023-01-02T07:01:11.753Z,1.08
2023-01-02T07:03:38.712Z,0.40
2023-01-02T07:06:17.213Z,0.30
2023-01-02T07:08:43.980Z,0.77
2023-01-02T07:11:22.020Z,0.73
2023-01-02T07:13:50.969Z,1.00
2023-01-02T07:16:19.293Z,0.85
2023-01-02T07:18:46.454Z,0.68
2023-01-02T07:21:15.130Z,0.57
2023-01-02T07:23:42.563Z,0.43
2023-01-02T07:26:11.001Z,1.13
2023-01-02T07:28:38.717Z,0.68
2023-01-02T07:31:07.641Z,0.80
2023-01-02T07:33:34.878Z,1.40
2023-01-02T07:36:04.328Z,1.55
2023-01-02T07:38:31.903Z,1.13
2023-01-02T07:40:58.500Z,0.43
2023-01-02T07:43:25.033Z,0.50
2023-01-02T07:45:51.558Z,0.85
2023-01-02T07:48:19.148Z,1.05
2023-01-02T07:50:46.101Z,2.30
2023-01-02T07:53:12.891Z,0.63
2023-01-02T07:55:39.316Z,1.27
2023-01-02T07:58:07.001Z,1.15
2023-01-02T08:00:33.417Z,0.60
2023-01-02T08:03:01.124Z,1.13
2023-01-02T08:05:27.530Z,0.57
2023-01-02T08:07:53.957Z,1.17
2023-01-02T08:10:20.411Z,1.30
2023-01-02T08:12:46.815Z,0.50
2023-01-02T08:15:13.335Z,1.40
2023-01-02T08:17:41.192Z,0.88
2023-01-02T08:20:08.891Z,0.75
2023-01-02T08:22:35.349Z,0.50
2023-01-02T08:25:02.220Z,0.70
2023-01-02T08:27:28.651Z,0.90
2023-01-02T08:29:55.115Z,1.17
2023-01-02T08:32:21.541Z,0.52
2023-01-02T08:34:47.974Z,0.50
2023-01-02T08:37:14.599Z,0.98
2023-01-02T08:39:41.113Z,0.25
2023-01-02T08:42:08.441Z,0.70
2023-01-02T08:44:35.879Z,1.25
2023-01-02T08:47:02.327Z,0.55
2023-01-02T08:49:28.970Z,1.10
2023-01-02T08:51:55.464Z,0.50
2023-01-02T08:54:21.856Z,2.10
2023-01-02T08:56:48.583Z,0.88
2023-01-02T08:59:15.441Z,0.70
2023-01-02T09:01:42.752Z,1.25
2023-01-02T09:04:12.745Z,1.67
2023-01-02T09:06:41.216Z,0.80
2023-01-02T09:09:12.006Z,0.80
2023-01-02T09:11:43.738Z,1.30
2023-01-02T09:14:10.152Z,1.30
2023-01-02T09:16:36.798Z,0.77
2023-01-02T09:19:03.480Z,1.45
2023-01-02T09:21:30.274Z,1.65
2023-01-02T09:23:56.959Z,1.02
2023-01-02T09:26:23.495Z,1.15
2023-01-02T09:28:49.975Z,0.70
2023-01-02T09:31:17.476Z,0.93
2023-01-02T09:33:45.528Z,0.90
2023-01-02T09:36:14.344Z,0.65
2023-01-02T09:38:41.039Z,1.00
2023-01-02T09:41:14.887Z,1.52
2023-01-02T09:43:50.520Z,1.20
2023-01-02T09:46:33.373Z,1.42
2023-01-02T09:49:01.589Z,1.55
2023-01-02T09:51:29.225Z,1.77
2023-01-02T09:53:55.720Z,5.03
2023-01-02T09:56:34.120Z,1.85
2023-01-02T09:59:14.563Z,1.73
2023-01-02T10:01:55.830Z,1.55
2023-01-02T10:04:41.409Z,0.98
2023-01-02T10:07:26.087Z,1.23
2023-01-02T10:10:06.020Z,0.90
2023-01-02T10:12:42.289Z,0.65
2023-01-02T10:15:16.579Z,1.38
2023-01-02T10:17:50.427Z,0.70
2023-01-02T10:20:51.517Z,0.65
2023-01-02T10:23:26.806Z,0.70
2023-01-02T10:25:58.732Z,0.70
2023-01-02T10:28:25.133Z,1.20
2023-01-02T10:31:06.917Z,1.10
2023-01-02T10:33:44.729Z,0.90
2023-01-02T10:36:38.489Z,0.57
2023-01-02T10:39:07.626Z,0.68
2023-01-02T10:41:35.168Z,0.30
2023-01-02T10:44:05.575Z,2.35
2023-01-02T10:46:35.154Z,0.50
2023-01-02T10:49:03.332Z,1.27
2023-01-02T10:51:30.617Z,0.35
2023-01-02T10:54:06.065Z,0.60
2023-01-02T10:56:36.023Z,0.73
2023-01-02T10:59:03.499Z,0.73
2023-01-02T11:01:30.576Z,1.08
2023-01-02T11:03:59.957Z,1.08
2023-01-02T11:06:38.913Z,0.22
2023-01-02T11:09:31.808Z,0.40
2023-01-02T11:12:11.272Z,1.20
2023-01-02T11:14:38.499Z,0.30
2023-01-02T11:17:10.097Z,0.40
2023-01-02T11:19:51.287Z,0.32
2023-01-02T11:22:23.485Z,1.85
2023-01-02T11:25:00.078Z,0.45
2023-01-02T11:27:44.400Z,0.80
2023-01-02T11:33:25.870Z,0.45
2023-01-02T11:35:56.059Z,0.88
2023-01-02T11:38:30.257Z,0.25
2023-01-02T11:41:02.727Z,1.13
2023-01-02T11:43:51.648Z,0.60
2023-01-02T11:46:27.936Z,0.50
2023-01-02T11:49:00.776Z,0.88
2023-01-02T11:51:29.765Z,0.80
2023-01-02T11:54:00.459Z,1.23
2023-01-02T11:56:39.732Z,1.13
2023-01-02T11:59:21.652Z,0.38
2023-01-02T12:02:05.917Z,0.60
2023-01-02T12:04:32.672Z,0.88
2023-01-02T12:07:22.306Z,0.93
2023-01-02T12:10:10.844Z,0.40
2023-01-02T12:12:56.329Z,0.52
2023-01-02T12:15:58.905Z,0.43
2023-01-02T12:18:40.020Z,0.40
2023-01-02T12:21:16.818Z,0.60
2023-01-02T12:23:50.662Z,0.50
2023-01-02T12:26:29.097Z,0.65
2023-01-02T12:29:03.958Z,0.73
2023-01-02T12:31:41.131Z,0.95
2023-01-02T12:34:26.160Z,0.50
2023-01-02T12:37:30.163Z,1.45
2023-01-02T12:40:11.702Z,1.15
2023-01-02T12:43:14.738Z,0.88
2023-01-02T12:45:53.052Z,1.33
2023-01-02T12:48:37.911Z,0.93
2023-01-02T12:51:25.995Z,0.60
2023-01-02T12:54:19.541Z,0.68
2023-01-02T12:57:05.117Z,0.47
2023-01-02T13:00:09.279Z,1.00
2023-01-02T13:03:06.087Z,1.35
2023-01-02T13:05:43.507Z,0.70
2023-01-02T13:08:29.800Z,1.13
2023-01-02T13:10:59.298Z,0.82
2023-01-02T13:13:30.682Z,0.98
2023-01-02T13:16:03.769Z,0.80
2023-01-02T13:19:00.445Z,1.08
2023-01-02T13:21:37.293Z,1.50
2023-01-02T13:24:04.230Z,2.40
2023-01-02T13:26:31.920Z,1.88
2023-01-02T13:29:10.309Z,1.48
2023-01-02T13:31:48.047Z,1.50
2023-01-02T13:34:22.337Z,1.50
2023-01-02T13:36:51.361Z,1.52
2023-01-02T13:39:19.275Z,2.80
2023-01-02T13:42:13.834Z,1.85
2023-01-02T13:44:47.494Z,2.15
2023-01-02T13:47:34.466Z,2.25
2023-01-02T13:50:23.329Z,3.30
2023-01-02T13:53:11.760Z,1.92
2023-01-02T13:55:40.902Z,3.38
2023-01-02T13:58:13.743Z,1.58
2023-01-02T14:00:55.260Z,1.63
2023-01-02T14:03:24.948Z,1.15
2023-01-02T14:05:58.967Z,1.13
2023-01-02T14:08:29.601Z,1.77
2023-01-02T14:11:05.053Z,1.90
2023-01-02T14:13:36.650Z,2.78
2023-01-02T14:16:14.896Z,3.40
2023-01-02T14:18:46.452Z,3.92
2023-01-02T14:21:20.622Z,2.25
2023-01-02T14:24:16.381Z,2.88
2023-01-02T14:26:39.463Z,2.58
2023-01-02T14:29:15.209Z,3.17
2023-01-02T14:31:42.916Z,2.95
2023-01-02T14:34:12.805Z,3.30
2023-01-02T14:36:48.270Z,3.92
2023-01-02T14:39:26.669Z,3.63
2023-01-02T14:42:11.753Z,2.70
2023-01-02T14:44:41.906Z,3.53
2023-01-02T14:47:14.289Z,5.10
2023-01-02T14:49:43.926Z,3.90
2023-01-02T14:52:26.958Z,2.15
2023-01-02T14:55:00.373Z,3.20
2023-01-02T14:57:31.495Z,4.03
2023-01-02T15:00:01.549Z,3.15
2023-01-02T15:02:43.159Z,2.35
2023-01-02T15:05:26.813Z,5.50
2023-01-02T15:10:23.552Z,2.92
2023-01-02T15:13:04.112Z,3.00
2023-01-02T15:15:40.815Z,2.25
2023-01-02T15:18:30.375Z,2.13
2023-01-02T15:21:08.062Z,3.13
2023-01-02T15:23:37.067Z,2.40
2023-01-02T15:26:32.606Z,2.45
2023-01-02T15:29:28.594Z,2.03
2023-01-02T15:31:57.572Z,3.53
2023-01-02T15:34:29.928Z,3.00
2023-01-02T15:37:00.827Z,3.13
2023-01-02T15:39:41.155Z,3.20
2023-01-02T15:42:29.729Z,1.73
2023-01-02T15:45:10.051Z,1.30
2023-01-02T15:47:44.426Z,2.75
2023-01-02T15:50:15.879Z,2.35
2023-01-02T15:52:46.417Z,1.65
2023-01-02T15:55:18.001Z,2.13
2023-01-02T15:57:56.101Z,2.80
2023-01-02T16:00:34.549Z,2.00
2023-01-02T16:03:01.205Z,3.00
2023-01-02T16:05:28.349Z,2.00
2023-01-02T16:07:58.283Z,2.78
2023-01-02T16:10:27.653Z,1.65
2023-01-02T16:12:57.772Z,2.03
2023-01-02T16:15:29.298Z,2.33
2023-01-02T16:17:57.001Z,1.45
2023-01-02T16:20:26.599Z,1.63
2023-01-02T16:23:01.228Z,1.85
2023-01-02T16:25:30.613Z,1.58
2023-01-02T16:28:35.571Z,1.90
2023-01-02T16:31:18.538Z,0.88
2023-01-02T16:33:46.285Z,1.00
2023-01-02T16:36:12.652Z,0.88
2023-01-02T16:38:54.028Z,1.17
2023-01-02T16:41:33.732Z,1.83
2023-01-02T16:44:04.683Z,2.40
2023-01-02T16:46:31.306Z,1.27
2023-01-02T16:49:03.085Z,1.48
2023-01-02T16:51:32.216Z,2.38
2023-01-02T16:53:58.742Z,2.58
2023-01-02T16:56:25.193Z,1.33
2023-01-02T16:58:53.026Z,3.30
2023-01-02T17:01:21.835Z,1.73
2023-01-02T17:03:48.400Z,1.33
2023-01-02T17:06:18.149Z,2.08
2023-01-02T17:08:44.678Z,1.33
2023-01-02T17:11:23.322Z,1.75
2023-01-02T17:13:51.163Z,1.20
2023-01-02T17:16:18.282Z,0.73
2023-01-02T17:18:44.820Z,0.88
2023-01-02T17:21:11.525Z,1.02
2023-01-02T17:23:38.022Z,1.50
2023-01-02T17:26:05.403Z,0.73
2023-01-02T17:28:31.820Z,1.88
2023-01-02T17:30:58.265Z,1.33
2023-01-02T17:33:24.681Z,1.52
2023-01-02T17:35:51.191Z,0.60
2023-01-02T17:38:18.322Z,1.67
2023-01-02T17:40:44.854Z,1.38
2023-01-02T17:43:11.329Z,1.55
2023-01-02T17:45:37.911Z,1.40
2023-01-02T17:48:10.916Z,1.20
2023-01-02T17:50:38.595Z,1.40
2023-01-02T17:53:07.314Z,0.70
2023-01-02T17:55:33.723Z,1.40
2023-01-02T17:58:01.009Z,2.05
2023-01-02T18:00:27.909Z,0.57
2023-01-02T18:02:54.485Z,1.10
2023-01-02T18:05:22.055Z,1.15
2023-01-02T18:07:48.483Z,2.35
2023-01-02T18:10:19.965Z,1.02
2023-01-02T18:12:49.300Z,1.13
2023-01-02T18:15:17.879Z,2.53
2023-01-02T18:17:44.398Z,0.80
2023-01-02T18:20:19.302Z,1.45
2023-01-02T18:22:50.130Z,1.67
2023-01-02T18:25:29.317Z,1.02
2023-01-02T18:28:15.933Z,2.67
2023-01-02T18:30:42.425Z,0.95
2023-01-02T18:33:17.259Z,1.60
2023-01-02T18:35:57.448Z,2.35
2023-01-02T18:38:34.806Z,1.70
2023-01-02T18:41:13.953Z,2.20
2023-01-02T18:43:41.446Z,1.45
2023-01-02T18:46:15.399Z,1.02
2023-01-02T18:48:42.619Z,0.93
2023-01-02T18:51:22.217Z,2.55
2023-01-02T18:53:51.148Z,1.02
2023-01-02T18:56:24.498Z,1.13
2023-01-02T18:59:12.546Z,1.05
2023-01-02T19:01:44.844Z,1.15
2023-01-02T19:04:26.801Z,1.20
2023-01-02T19:06:57.387Z,0.73
2023-01-02T19:09:41.836Z,1.92
2023-01-02T19:12:32.648Z,2.00
2023-01-02T19:15:20.917Z,1.30
2023-01-02T19:17:48.137Z,2.55
2023-01-02T19:20:14.704Z,2.17
2023-01-02T19:22:41.137Z,0.95
2023-01-02T19:25:19.656Z,0.77
2023-01-02T19:27:46.064Z,2.05
2023-01-02T19:30:31.077Z,2.10
2023-01-02T19:32:58.040Z,1.55
2023-01-02T19:35:24.422Z,1.13
2023-01-02T19:37:50.957Z,1.35
2023-01-02T19:40:20.658Z,2.38
2023-01-02T19:42:48.563Z,2.00
2023-01-02T19:45:21.212Z,2.38
2023-01-02T19:47:49.207Z,2.28
2023-01-02T19:50:21.448Z,2.45
2023-01-02T19:52:48.503Z,1.38
2023-01-02T19:55:15.645Z,1.27
2023-01-02T19:57:42.150Z,2.08
2023-01-02T20:00:12.661Z,1.70
2023-01-02T20:02:40.805Z,2.45
2023-01-02T20:05:08.362Z,1.48
2023-01-02T20:07:34.862Z,1.95
2023-01-02T20:10:01.265Z,1.67
2023-01-02T20:12:30.658Z,2.72
2023-01-02T20:15:02.227Z,2.35
2023-01-02T20:17:28.957Z,2.45
2023-01-02T20:19:56.065Z,3.42
2023-01-02T20:22:22.556Z,2.20
2023-01-02T20:24:49.067Z,3.35
2023-01-02T20:27:15.680Z,2.88
2023-01-02T20:29:42.858Z,2.58
2023-01-02T20:32:09.386Z,2.72
2023-01-02T20:34:35.871Z,4.78
2023-01-02T20:37:02.258Z,3.55
2023-01-02T20:39:28.695Z,2.80
2023-01-02T20:41:55.176Z,3.97
2023-01-02T20:44:21.601Z,3.72
2023-01-02T20:46:48.040Z,4.32
2023-01-02T20:49:14.508Z,5.55
2023-01-02T20:51:40.948Z,4.47
2023-01-02T20:54:07.622Z,4.57
2023-01-02T20:56:34.447Z,5.75
2023-01-02T20:59:02.170Z,4.55
2023-01-02T21:01:28.706Z,3.75
2023-01-02T21:03:55.385Z,5.18
2023-01-02T21:06:21.874Z,3.47
2023-01-02T21:08:48.343Z,3.25
2023-01-02T21:11:14.876Z,4.50
2023-01-02T21:13:41.291Z,5.10
2023-01-02T21:16:07.806Z,4.20
2023-01-02T21:18:36.834Z,4.65
2023-01-02T21:21:05.515Z,6.15
2023-01-02T21:23:35.292Z,6.18
2023-01-02T21:26:02.074Z,5.30
2023-01-02T21:28:28.536Z,3.58
2023-01-02T21:30:55.041Z,4.55
2023-01-02T21:33:23.176Z,5.70
2023-01-02T21:35:51.173Z,7.00
2023-01-02T21:38:19.556Z,5.32
2023-01-02T21:40:46.097Z,6.30
2023-01-02T21:43:13.133Z,7.25
2023-01-02T21:45:39.758Z,5.47
2023-01-02T21:48:07.327Z,6.38
2023-01-02T21:50:34.032Z,5.85
2023-01-02T21:53:00.718Z,5.72
2023-01-02T21:55:27.284Z,6.70
2023-01-02T21:58:15.830Z,6.50
2023-01-02T22:00:43.194Z,5.68
2023-01-02T22:03:10.073Z,6.22
2023-01-02T22:05:36.668Z,5.80
2023-01-02T22:08:03.302Z,5.32
2023-01-02T22:10:29.887Z,5.45
2023-01-02T22:12:56.351Z,6.97
2023-01-02T22:15:23.821Z,6.75
2023-01-02T22:17:50.239Z,6.47
2023-01-02T22:20:16.796Z,5.78
2023-01-02T22:22:43.427Z,7.57
2023-01-02T22:25:10.497Z,6.28
2023-01-02T22:27:37.598Z,4.60
2023-01-02T22:30:27.373Z,5.93
2023-01-02T22:32:53.793Z,6.35
2023-01-02T22:35:20.257Z,5.28
2023-01-02T22:37:46.637Z,4.97
2023-01-02T22:40:13.102Z,7.07
2023-01-02T22:43:01.061Z,6.78
2023-01-02T22:45:33.059Z,5.13
2023-01-02T22:48:03.616Z,6.30
2023-01-02T22:50:37.713Z,6.18
2023-01-02T22:53:15.448Z,4.90
2023-01-02T22:55:42.024Z,5.82
2023-01-02T22:58:08.758Z,6.93
2023-01-02T23:00:35.294Z,6.45
2023-01-02T23:03:01.764Z,6.82
2023-01-02T23:05:28.254Z,5.00
2023-01-02T23:07:54.755Z,6.38
2023-01-02T23:10:21.306Z,5.53
2023-01-02T23:12:47.750Z,4.38
2023-01-02T23:15:14.513Z,6.47
2023-01-02T23:17:59.832Z,6.07
2023-01-02T23:20:27.165Z,5.88
2023-01-02T23:22:53.703Z,4.68
2023-01-02T23:25:20.521Z,4.50
2023-01-02T23:27:47.026Z,5.25
2023-01-02T23:30:13.600Z,6.00
2023-01-02T23:32:40.079Z,5.47
2023-01-02T23:35:07.185Z,4.40
2023-01-02T23:37:33.580Z,6.15
2023-01-02T23:40:00.040Z,6.40
2023-01-02T23:42:26.493Z,5.10
2023-01-02T23:44:52.977Z,6.80
2023-01-02T23:47:19.628Z,5.13
2023-01-02T23:49:46.500Z,5.18
2023-01-02T23:52:12.968Z,4.97
2023-01-02T23:54:39.357Z,5.43
2023-01-02T23:57:06.056Z,4.05
2023-01-02T23:59:32.451Z,3.92
